Time;durP1;ratioP1;P1;durP2;ratioP2;P2;SDS_P1;SDS_P2;PMS_P1;PMS_P2;Temp;Humidity;BMP_temperature;BMP_pressure;BME280_temperature;BME280_humidity;BME280_pressure;Samples;Min_cycle;Max_cycle;Signal;HPM_P1;HPM_P2
2021/12/10 00:01:29;;;;;;;36.85;20.30;;;;;;;;;;5139015;27;20043;-86
2021/12/10 00:03:58;;;;;;;42.38;19.67;;;4.70;99.90;;;;;;5121643;27;20050;-86
2021/12/10 00:06:30;;;;;;;34.85;19.65;;;;;;;;;;5121532;27;20132;-86
2021/12/10 00:08:59;;;;;;;35.35;19.35;;;4.80;99.90;;;;;;5138594;27;20045;-86
2021/12/10 00:11:32;;;;;;;36.20;17.20;;;;;;;;;;5138084;27;20042;-86
2021/12/10 00:13:59;;;;;;;33.57;18.77;;;;;;;;;;5137751;27;20078;-85
2021/12/10 00:16:25;;;;;;;32.88;16.50;;;;;;;;;;5120866;27;20081;-86
2021/12/10 00:18:57;;;;;;;29.27;14.27;;;;;;;;;;5120614;27;20130;-85
2021/12/10 00:21:24;;;;;;;37.55;18.38;;;;;;;;;;5120434;27;20049;-86
2021/12/10 00:23:51;;;;;;;34.55;16.83;;;;;;;;;;5121430;27;20039;-86
2021/12/10 00:26:20;;;;;;;36.95;16.27;;;;;;;;;;5121511;27;20446;-86
2021/12/10 00:28:47;;;;;;;30.00;15.32;;;;;;;;;;5120229;27;20039;-86
2021/12/10 00:31:32;;;;;;;37.55;16.98;;;4.70;99.90;;;;;;5120378;27;20094;-85
2021/12/10 00:34:08;;;;;;;32.05;16.67;;;;;;;;;;5120950;27;20538;-86
2021/12/10 00:36:36;;;;;;;34.33;15.60;;;4.60;99.90;;;;;;5120940;27;20046;-86
2021/12/10 00:39:06;;;;;;;30.00;16.77;;;4.90;99.90;;;;;;5121305;27;20081;-86
2021/12/10 00:41:33;;;;;;;24.95;15.27;;;;;;;;;;5120649;27;20080;-86
2021/12/10 00:43:59;;;;;;;33.33;15.63;;;;;;;;;;5121038;27;20615;-86
2021/12/10 00:46:25;;;;;;;26.02;13.75;;;;;;;;;;5138628;27;20142;-85
2021/12/10 00:48:51;;;;;;;32.72;15.70;;;;;;;;;;5120649;27;20034;-86
2021/12/10 00:51:17;;;;;;;32.88;14.88;;;;;;;;;;5119655;27;20111;-86
2021/12/10 00:53:44;;;;;;;31.92;14.80;;;;;;;;;;5119850;27;20061;-86
2021/12/10 00:56:11;;;;;;;25.58;15.65;;;;;;;;;;5120231;27;20042;-86
2021/12/10 00:58:39;;;;;;;26.60;13.98;;;;;;;;;;5120714;27;20393;-86
2021/12/10 01:01:11;;;;;;;31.42;16.20;;;;;;;;;;5120324;27;20049;-86
2021/12/10 01:03:39;;;;;;;25.05;15.27;;;;;;;;;;5137779;27;20394;-86
2021/12/10 01:06:08;;;;;;;31.98;15.65;;;4.70;99.90;;;;;;5120717;27;20046;-86
2021/12/10 01:08:35;;;;;;;30.48;16.05;;;;;;;;;;5120174;27;20042;-86
2021/12/10 01:11:04;;;;;;;28.83;14.65;;;;;;;;;;5138103;27;20407;-86
2021/12/10 01:13:34;;;;;;;34.65;13.52;;;;;;;;;;5120739;27;20047;-86
2021/12/10 01:23:41;;;;;;;22.23;15.13;;;4.60;99.90;;;;;;5138243;27;20125;-86
2021/12/10 01:25:07;;;;;;;32.90;13.77;;;;;;;;;;5136973;27;20039;-86
2021/12/10 01:27:35;;;;;;;28.27;15.30;;;;;;;;;;5119607;27;20046;-86
2021/12/10 01:30:09;;;;;;;29.05;15.57;;;;;;;;;;5136957;27;20395;-86
2021/12/10 01:32:38;;;;;;;26.13;14.95;;;;;;;;;;5119623;27;20042;-87
2021/12/10 01:35:07;;;;;;;29.65;16.13;;;4.90;99.90;;;;;;5119773;27;20043;-86
2021/12/10 01:37:33;;;;;;;23.48;14.23;;;;;;;;;;5136598;27;20071;-86
2021/12/10 01:40:00;;;;;;;38.45;14.98;;;;;;;;;;5119384;27;20038;-86
2021/12/10 01:44:54;;;;;;;35.25;15.02;;;;;;;;;;5138276;27;20134;-86
2021/12/10 01:47:23;;;;;;;35.17;15.70;;;;;;;;;;5136983;27;20060;-86
2021/12/10 01:49:49;;;;;;;22.52;13.00;;;;;;;;;;5119383;27;20042;-86
2021/12/10 01:52:16;;;;;;;22.33;13.55;;;;;;;;;;5133552;28;20137;-85
2021/12/10 01:54:45;;;;;;;26.55;14.15;;;;;;;;;;5116611;28;20381;-86
2021/12/10 01:57:13;;;;;;;61.15;16.40;;;;;;;;;;5133302;27;20499;-86
2021/12/10 01:59:40;;;;;;;26.15;13.75;;;;;;;;;;5137260;27;20039;-86
2021/12/10 02:02:09;;;;;;;24.38;13.52;;;;;;;;;;5119862;27;20092;-86
2021/12/10 02:04:35;;;;;;;29.75;14.65;;;;;;;;;;5120686;27;20130;-85
2021/12/10 02:07:03;;;;;;;37.78;15.02;;;;;;;;;;5119883;27;20134;-85
2021/12/10 02:09:30;;;;;;;26.65;13.30;;;;;;;;;;5119420;27;20074;-86
2021/12/10 02:11:56;;;;;;;25.73;13.13;;;;;;;;;;5119463;27;20491;-85
2021/12/10 02:14:22;;;;;;;28.33;13.20;;;;;;;;;;5136261;27;20495;-85
2021/12/10 02:16:49;;;;;;;24.23;13.57;;;;;;;;;;5120005;27;20069;-85
2021/12/10 02:19:15;;;;;;;26.70;14.50;;;;;;;;;;5119594;27;20046;-85
2021/12/10 02:21:41;;;;;;;27.45;13.70;;;;;;;;;;5136979;27;20161;-85
2021/12/10 02:24:08;;;;;;;36.70;14.57;;;;;;;;;;5137610;27;20050;-85
2021/12/10 02:26:36;;;;;;;21.77;12.20;;;;;;;;;;5137219;27;20039;-85
2021/12/10 02:29:04;;;;;;;34.47;14.90;;;;;;;;;;5120078;27;20483;-85
2021/12/10 02:31:30;;;;;;;22.92;12.32;;;;;;;;;;5118991;27;20556;-85
2021/12/10 02:33:56;;;;;;;25.38;11.15;;;;;;;;;;5119710;27;20523;-85
2021/12/10 02:36:24;;;;;;;23.48;12.55;;;;;;;;;;5118951;27;20046;-85
2021/12/10 02:38:51;;;;;;;21.92;12.50;;;;;;;;;;5119402;27;20506;-86
2021/12/10 02:41:18;;;;;;;16.60;8.98;;;;;;;;;;5119259;27;20075;-86
2021/12/10 02:43:45;;;;;;;23.23;10.23;;;;;;;;;;5136069;27;20051;-86
2021/12/10 02:46:11;;;;;;;24.17;11.10;;;;;;;;;;5136201;27;20411;-85
2021/12/10 02:48:38;;;;;;;23.05;10.13;;;;;;;;;;5135825;27;20046;-86
2021/12/10 02:51:06;;;;;;;24.73;10.35;;;;;;;;;;5118427;27;20212;-86
2021/12/10 02:53:36;;;;;;;21.45;12.02;;;;;;;;;;5118552;27;20051;-85
2021/12/10 02:56:03;;;;;;;17.38;10.27;;;;;;;;;;5135757;27;20057;-85
2021/12/10 02:58:29;;;;;;;21.17;11.00;;;;;;;;;;5135542;27;20043;-85
2021/12/10 03:00:55;;;;;;;25.33;10.63;;;;;;;;;;5118460;27;20050;-86
2021/12/10 03:03:21;;;;;;;26.02;10.95;;;;;;;;;;5118757;27;20400;-86
2021/12/10 03:05:47;;;;;;;23.13;12.13;;;;;;;;;;5118501;27;20073;-86
2021/12/10 03:08:13;;;;;;;20.63;11.48;;;;;;;;;;5118791;27;20404;-86
2021/12/10 03:10:40;;;;;;;29.25;12.98;;;;;;;;;;5118382;27;20392;-86
2021/12/10 03:13:08;;;;;;;16.58;10.60;;;;;;;;;;5135062;27;20045;-86
2021/12/10 03:15:35;;;;;;;29.90;11.35;;;;;;;;;;5136092;27;20082;-86
2021/12/10 03:18:02;;;;;;;28.30;12.35;;;;;;;;;;5120818;27;20058;-86
2021/12/10 03:20:29;;;;;;;21.63;10.88;;;;;;;;;;5119625;27;20046;-85
2021/12/10 03:22:56;;;;;;;20.38;11.02;;;;;;;;;;5118384;27;20498;-86
2021/12/10 03:25:22;;;;;;;23.67;11.43;;;;;;;;;;5118800;27;20472;-86
2021/12/10 03:27:49;;;;;;;26.00;11.27;;;;;;;;;;5118537;27;20407;-86
2021/12/10 03:30:20;;;;;;;21.02;11.18;;;;;;;;;;5135301;27;20051;-86
2021/12/10 03:32:47;;;;;;;20.42;10.52;;;;;;;;;;5135502;27;20047;-86
2021/12/10 03:35:16;;;;;;;21.48;12.88;;;;;;;;;;5118235;27;20046;-86
2021/12/10 03:37:43;;;;;;;20.98;11.40;;;;;;;;;;5118203;27;20127;-86
2021/12/10 03:40:10;;;;;;;20.27;12.57;;;;;;;;;;5118839;27;20053;-85
2021/12/10 03:42:36;;;;;;;27.95;12.85;;;;;;;;;;5118753;27;20490;-86
2021/12/10 03:45:03;;;;;;;25.30;11.23;;;;;;;;;;5117408;27;20089;-86
2021/12/10 03:47:30;;;;;;;23.92;11.38;;;;;;;;;;5118191;27;20045;-85
2021/12/10 03:49:56;;;;;;;23.17;11.52;;;;;;;;;;5134782;27;20138;-86
2021/12/10 03:52:22;;;;;;;23.63;12.82;;;;;;;;;;5118109;27;20051;-85
2021/12/10 03:54:48;;;;;;;25.67;11.45;;;;;;;;;;5117684;27;20047;-86
2021/12/10 03:57:14;;;;;;;28.05;11.50;;;;;;;;;;5117587;27;20039;-85
2021/12/10 03:59:40;;;;;;;19.55;12.15;;;;;;;;;;5117884;27;20062;-85
2021/12/10 04:02:08;;;;;;;22.65;11.75;;;;;;;;;;5117244;27;20126;-86
2021/12/10 04:04:40;;;;;;;21.98;11.82;;;4.40;99.90;;;;;;5117989;27;20047;-86
2021/12/10 04:07:11;;;;;;;26.95;12.25;;;4.40;99.90;;;;;;5117355;27;20054;-86
2021/12/10 04:09:37;;;;;;;21.67;11.05;;;;;;;;;;5116780;27;20043;-85
2021/12/10 04:12:04;;;;;;;21.10;11.13;;;;;;;;;;5134265;27;20089;-85
2021/12/10 04:14:30;;;;;;;25.70;10.13;;;;;;;;;;5134449;27;20039;-87
2021/12/10 04:16:57;;;;;;;22.70;11.25;;;;;;;;;;5117002;27;20046;-87
2021/12/10 04:19:29;;;;;;;26.58;11.10;;;;;;;;;;5134153;27;20107;-87
2021/12/10 04:21:56;;;;;;;17.17;10.23;;;;;;;;;;5116836;27;20043;-86
2021/12/10 04:24:24;;;;;;;17.95;10.70;;;;;;;;;;5117115;27;20097;-87
2021/12/10 04:26:50;;;;;;;21.67;10.82;;;;;;;;;;5116888;27;20491;-86
2021/12/10 04:29:19;;;;;;;24.58;11.48;;;;;;;;;;5133878;27;20047;-86
2021/12/10 04:31:46;;;;;;;19.45;11.07;;;;;;;;;;5117128;27;20043;-87
2021/12/10 04:34:12;;;;;;;20.50;9.90;;;;;;;;;;5134758;27;20121;-86
2021/12/10 04:36:38;;;;;;;17.55;11.00;;;;;;;;;;5134305;27;20079;-86
2021/12/10 04:39:04;;;;;;;28.23;11.43;;;;;;;;;;5135862;27;20415;-87
2021/12/10 04:41:30;;;;;;;24.92;11.77;;;;;;;;;;5134601;27;20488;-87
2021/12/10 04:43:56;;;;;;;23.50;11.07;;;;;;;;;;5136035;27;20046;-87
2021/12/10 04:46:23;;;;;;;22.38;11.55;;;;;;;;;;5135277;27;20061;-87
2021/12/10 04:48:57;;;;;;;26.17;12.45;;;;;;;;;;5116713;27;20387;-87
2021/12/10 04:51:27;;;;;;;24.63;12.48;;;;;;;;;;5133506;27;20043;-86
2021/12/10 04:53:54;;;;;;;22.75;12.30;;;;;;;;;;5117329;28;20046;-86
2021/12/10 04:56:21;;;;;;;22.23;12.88;;;;;;;;;;5134101;28;20047;-87
2021/12/10 04:58:47;;;;;;;21.33;13.27;;;;;;;;;;5133905;28;20092;-86
2021/12/10 05:01:13;;;;;;;26.00;13.27;;;;;;;;;;5117110;28;20039;-87
2021/12/10 05:03:40;;;;;;;26.63;12.00;;;;;;;;;;5117097;28;20088;-87
2021/12/10 05:06:06;;;;;;;19.85;12.77;;;;;;;;;;5134059;28;20419;-87
2021/12/10 05:08:33;;;;;;;23.75;12.77;;;;;;;;;;5133677;28;20039;-87
2021/12/10 05:11:00;;;;;;;21.65;10.93;;;;;;;;;;5116413;28;20151;-87
2021/12/10 05:13:26;;;;;;;23.25;11.50;;;;;;;;;;5133547;28;20078;-87
2021/12/10 05:15:58;;;;;;;22.58;11.65;;;;;;;;;;5116557;28;20075;-87
2021/12/10 05:18:25;;;;;;;21.13;12.70;;;;;;;;;;5116755;28;20221;-87
2021/12/10 05:20:51;;;;;;;24.80;14.75;;;4.00;99.90;;;;;;5116550;28;20043;-87
2021/12/10 05:23:18;;;;;;;24.73;13.63;;;3.70;99.90;;;;;;5133771;28;20368;-87
2021/12/10 05:25:44;;;;;;;21.00;13.60;;;;;;;;;;5116549;28;20054;-87
2021/12/10 05:28:11;;;;;;;23.80;13.93;;;;;;;;;;5116701;28;20039;-87
2021/12/10 05:30:39;;;;;;;25.23;13.25;;;;;;;;;;5116367;28;20096;-87
2021/12/10 05:33:05;;;;;;;22.92;13.30;;;;;;;;;;5117877;27;20569;-87
2021/12/10 05:35:32;;;;;;;28.83;14.52;;;;;;;;;;5120452;27;20043;-87
2021/12/10 05:37:59;;;;;;;24.70;13.10;;;;;;;;;;5120768;27;20039;-86
2021/12/10 05:40:26;;;;;;;23.63;13.48;;;;;;;;;;5120748;27;20136;-87
2021/12/10 05:42:52;;;;;;;26.38;14.10;;;;;;;;;;5121357;27;20456;-87
2021/12/10 05:45:19;;;;;;;26.85;13.82;;;;;;;;;;5121308;27;20085;-87
2021/12/10 05:47:46;;;;;;;23.63;14.50;;;;;;;;;;5120826;27;20043;-86
2021/12/10 05:50:13;;;;;;;20.20;14.05;;;;;;;;;;5137601;27;20134;-86
2021/12/10 05:52:40;;;;;;;26.13;15.05;;;;;;;;;;5119250;27;20475;-86
2021/12/10 05:55:06;;;;;;;28.90;15.45;;;;;;;;;;5121407;27;20089;-86
2021/12/10 05:57:32;;;;;;;29.98;16.17;;;;;;;;;;5122210;27;20043;-86
2021/12/10 05:59:58;;;;;;;22.52;13.20;;;;;;;;;;5138214;27;20042;-85
2021/12/10 06:02:25;;;;;;;22.88;14.95;;;;;;;;;;5137580;27;20043;-86
2021/12/10 06:04:51;;;;;;;24.30;14.07;;;;;;;;;;5137208;27;20440;-86
2021/12/10 06:07:18;;;;;;;24.10;15.27;;;;;;;;;;5136804;27;20046;-86
2021/12/10 06:09:44;;;;;;;30.02;15.63;;;;;;;;;;5136586;27;20055;-86
2021/12/10 06:12:10;;;;;;;28.90;14.98;;;;;;;;;;5120028;27;20047;-86
2021/12/10 06:14:36;;;;;;;24.65;12.75;;;;;;;;;;5120114;27;20039;-86
2021/12/10 06:17:05;;;;;;;25.80;13.98;;;;;;;;;;5120378;27;20403;-86
2021/12/10 06:19:31;;;;;;;26.63;14.82;;;;;;;;;;5137558;27;20065;-86
2021/12/10 06:21:57;;;;;;;26.67;15.65;;;;;;;;;;5137248;27;20511;-86
2021/12/10 06:24:24;;;;;;;28.48;14.38;;;;;;;;;;5121209;27;20511;-86
2021/12/10 06:26:52;;;;;;;27.80;15.02;;;;;;;;;;5136616;27;20126;-86
2021/12/10 06:29:19;;;;;;;31.42;16.60;;;;;;;;;;5138044;27;20051;-86
2021/12/10 06:31:45;;;;;;;26.92;14.50;;;;;;;;;;5138474;27;20058;-86
2021/12/10 06:34:11;;;;;;;24.73;14.75;;;;;;;;;;5138793;27;20074;-86
2021/12/10 06:36:38;;;;;;;26.33;15.55;;;;;;;;;;5136813;27;20411;-86
2021/12/10 06:39:04;;;;;;;28.88;16.10;;;;;;;;;;5136770;27;20039;-86
2021/12/10 06:41:30;;;;;;;23.90;15.23;;;;;;;;;;5119607;27;20039;-86
2021/12/10 06:43:57;;;;;;;20.33;14.50;;;;;;;;;;5135973;27;20459;-86
2021/12/10 06:46:23;;;;;;;23.90;14.45;;;;;;;;;;5136074;27;20047;-86
2021/12/10 06:48:49;;;;;;;24.10;14.40;;;;;;;;;;5138294;27;20041;-86
2021/12/10 06:51:18;;;;;;;22.95;14.63;;;;;;;;;;5136025;27;20047;-86
2021/12/10 06:53:45;;;;;;;23.42;14.93;;;;;;;;;;5118846;27;20423;-86
2021/12/10 06:56:13;;;;;;;19.25;12.57;;;;;;;;;;5137404;27;20043;-86
2021/12/10 06:58:39;;;;;;;27.20;15.60;;;;;;;;;;5136538;27;20083;-87
2021/12/10 07:01:13;;;;;;;24.23;14.02;;;;;;;;;;5137182;27;20464;-86
2021/12/10 07:03:40;;;;;;;26.70;16.25;;;;;;;;;;5119010;27;20134;-87
2021/12/10 07:06:07;;;;;;;22.92;14.10;;;;;;;;;;5135986;27;20082;-87
2021/12/10 07:08:34;;;;;;;27.10;14.27;;;;;;;;;;5137713;27;20050;-86
2021/12/10 07:11:01;;;;;;;22.73;13.55;;;;;;;;;;5136768;27;20042;-86
2021/12/10 07:13:28;;;;;;;23.67;14.18;;;;;;;;;;5137761;27;20043;-86
2021/12/10 07:15:54;;;;;;;16.67;13.05;;;;;;;;;;5136535;27;20039;-86
2021/12/10 07:18:22;;;;;;;23.17;14.55;;;;;;;;;;5137762;27;20092;-86
2021/12/10 07:20:48;;;;;;;21.35;14.18;;;;;;;;;;5118623;27;20054;-85
2021/12/10 07:23:15;;;;;;;23.30;13.77;;;;;;;;;;5135814;27;20039;-85
2021/12/10 07:25:41;;;;;;;21.45;14.77;;;;;;;;;;5136373;27;20452;-85
2021/12/10 07:28:07;;;;;;;19.58;12.57;;;;;;;;;;5136780;27;20039;-85
2021/12/10 07:30:33;;;;;;;21.05;13.45;;;;;;;;;;5136240;27;20039;-85
2021/12/10 07:33:00;;;;;;;24.38;12.45;;;;;;;;;;5136093;27;20138;-86
2021/12/10 07:35:26;;;;;;;23.20;12.48;;;;;;;;;;5136881;27;20539;-86
2021/12/10 07:37:53;;;;;;;20.33;12.25;;;;;;;;;;5118465;27;20066;-86
2021/12/10 07:40:20;;;;;;;21.73;12.23;;;;;;;;;;5137092;27;20510;-86
2021/12/10 07:42:50;;;;;;;18.67;12.52;;;;;;;;;;5118548;27;20373;-86
2021/12/10 07:45:16;;;;;;;15.55;11.95;;;;;;;;;;5136129;27;20084;-86
2021/12/10 07:47:43;;;;;;;21.35;11.40;;;;;;;;;;5136113;27;20046;-87
2021/12/10 07:50:17;;;;;;;17.35;11.07;;;;;;;;;;5134919;27;20050;-86
2021/12/10 07:52:45;;;;;;;18.20;11.13;;;;;;;;;;5145548;27;20077;-86
2021/12/10 07:55:13;;;;;;;18.27;10.90;;;;;;;;;;5120761;27;20046;-86
2021/12/10 07:57:39;;;;;;;18.42;9.93;;;;;;;;;;5157591;27;20051;-86
2021/12/10 08:00:06;;;;;;;18.95;10.40;;;;;;;;;;5140204;27;20073;-86
2021/12/10 08:02:32;;;;;;;15.98;10.20;;;;;;;;;;5140293;27;20153;-86
2021/12/10 08:04:58;;;;;;;15.73;9.07;;;;;;;;;;5138317;27;20038;-86
2021/12/10 08:07:25;;;;;;;17.67;10.05;;;;;;;;;;5139247;27;20050;-86
2021/12/10 08:09:51;;;;;;;18.23;10.18;;;;;;;;;;5139933;27;20077;-86
2021/12/10 08:12:17;;;;;;;15.98;10.50;;;;;;;;;;5139484;27;20042;-86
2021/12/10 08:14:45;;;;;;;17.33;9.73;;;;;;;;;;5139220;27;20050;-86
2021/12/10 08:17:12;;;;;;;14.60;9.55;;;;;;;;;;5122530;27;20399;-86
2021/12/10 08:19:38;;;;;;;19.45;10.82;;;;;;;;;;5139222;27;20050;-86
2021/12/10 08:22:06;;;;;;;17.63;9.68;;;;;;;;;;5156408;27;20038;-86
2021/12/10 08:24:32;;;;;;;16.83;10.27;;;;;;;;;;5156497;27;20043;-86
2021/12/10 08:26:58;;;;;;;18.63;10.55;;;;;;;;;;5156275;27;20531;-86
2021/12/10 08:29:26;;;;;;;22.08;11.25;;;;;;;;;;5139568;27;20064;-86
2021/12/10 08:31:52;;;;;;;16.13;9.98;;;;;;;;;;5138565;27;20074;-86
2021/12/10 08:34:18;;;;;;;14.20;8.85;;;;;;;;;;5137907;27;20081;-86
2021/12/10 08:36:44;;;;;;;16.23;9.95;;;;;;;;;;5138304;27;20068;-86
2021/12/10 08:39:11;;;;;;;14.50;9.10;;;;;;;;;;5137642;27;20045;-86
2021/12/10 08:41:38;;;;;;;17.80;9.43;;;;;;;;;;5138348;27;20475;-86
2021/12/10 08:44:05;;;;;;;20.90;9.65;;;;;;;;;;5120715;27;20534;-86
2021/12/10 08:46:32;;;;;;;17.33;9.93;;;;;;;;;;5120894;27;20475;-86
2021/12/10 08:48:59;;;;;;;14.27;8.65;;;;;;;;;;5156410;27;20039;-86
2021/12/10 08:51:29;;;;;;;15.52;9.57;;;;;;;;;;5120609;27;20054;-86
2021/12/10 08:53:55;;;;;;;14.82;9.38;;;;;;;;;;5120903;27;20055;-86
2021/12/10 08:56:22;;;;;;;14.60;10.40;;;;;;;;;;5137347;27;20049;-86
2021/12/10 08:58:49;;;;;;;11.70;7.75;;;;;;;;;;5137864;27;20042;-86
2021/12/10 09:01:23;;;;;;;15.85;8.52;;;;;;;;;;5137992;27;20086;-86
2021/12/10 09:03:52;;;;;;;15.30;9.50;;;;;;;;;;5157127;27;20091;-86
2021/12/10 09:06:19;;;;;;;19.55;9.40;;;;;;;;;;5138628;27;20064;-86
2021/12/10 09:08:46;;;;;;;16.67;9.10;;;;;;;;;;5141850;27;20046;-86
2021/12/10 09:11:12;;;;;;;19.80;10.25;;;;;;;;;;5141675;27;20110;-86
2021/12/10 09:13:39;;;;;;;12.73;8.80;;;;;;;;;;5124986;27;20149;-86
2021/12/10 09:16:07;;;;;;;14.35;8.55;;;;;;;;;;5124446;27;20411;-86
2021/12/10 09:18:33;;;;;;;14.88;9.30;;;;;;;;;;5141099;27;20042;-86
2021/12/10 09:21:00;;;;;;;17.58;8.45;;;;;;;;;;5141266;27;20050;-86
2021/12/10 09:23:27;;;;;;;17.67;8.55;;;;;;;;;;5124059;27;20039;-86
2021/12/10 09:25:55;;;;;;;11.02;7.95;;;;;;;;;;5142443;27;20039;-86
2021/12/10 09:28:21;;;;;;;14.60;9.52;;;;;;;;;;5142045;27;20079;-86
2021/12/10 09:30:49;;;;;;;11.80;7.82;;;;;;;;;;5141695;27;20479;-86
2021/12/10 09:33:15;;;;;;;13.80;7.40;;;;;;;;;;5160089;27;20100;-87
2021/12/10 09:35:41;;;;;;;15.45;8.43;;;;;;;;;;5124813;27;20049;-86
2021/12/10 09:38:07;;;;;;;13.00;8.15;;;;;;;;;;5124882;27;20091;-86
2021/12/10 09:40:36;;;;;;;13.88;7.38;;;;;;;;;;5125029;27;20069;-86
2021/12/10 09:43:04;;;;;;;11.05;7.30;;;;;;;;;;5161797;27;20121;-86
2021/12/10 09:45:32;;;;;;;14.80;8.20;;;;;;;;;;5124619;27;20099;-86
2021/12/10 09:47:58;;;;;;;14.02;7.95;;;;;;;;;;5141561;27;20054;-86
2021/12/10 09:50:30;;;;;;;12.68;7.28;;;;;;;;;;5124762;27;20106;-87
2021/12/10 09:52:58;;;;;;;11.40;6.90;;;;;;;;;;5123809;27;20090;-86
2021/12/10 09:55:24;;;;;;;11.32;6.70;;;;;;;;;;5141522;27;20168;-86
2021/12/10 09:57:52;;;;;;;12.45;7.03;;;;;;;;;;5124213;27;20117;-87
2021/12/10 10:00:23;;;;;;;11.57;7.03;;;;;;;;;;5141179;27;20498;-87
2021/12/10 10:02:49;;;;;;;12.30;7.30;;;;;;;;;;5141731;27;20045;-87
2021/12/10 10:05:17;;;;;;;8.48;6.18;;;;;;;;;;5123704;27;20122;-87
2021/12/10 10:07:50;;;;;;;12.40;7.38;;;;;;;;;;5141352;27;20109;-87
2021/12/10 10:10:18;;;;;;;11.65;6.63;;;;;;;;;;5159390;27;20535;-86
2021/12/10 10:12:46;;;;;;;13.55;6.85;;;;;;;;;;5159870;27;20491;-85
2021/12/10 10:15:16;;;;;;;9.93;6.25;;;;;;;;;;5125501;27;20047;-85
2021/12/10 10:17:42;;;;;;;12.65;7.00;;;;;;;;;;5124264;27;20130;-85
2021/12/10 10:20:11;;;;;;;13.57;7.32;;;;;;;;;;5140405;27;20034;-85
2021/12/10 10:22:37;;;;;;;9.05;6.95;;;;;;;;;;5160060;27;20046;-85
2021/12/10 10:25:07;;;;;;;13.55;8.32;;;;;;;;;;5142088;27;20045;-85
2021/12/10 10:27:34;;;;;;;8.98;6.00;;;;;;;;;;5142060;27;20044;-85
2021/12/10 10:30:06;;;;;;;9.77;6.28;;;;;;;;;;5159117;27;20042;-85
2021/12/10 10:32:34;;;;;;;8.95;5.95;;;;;;;;;;5140261;27;20046;-85
2021/12/10 10:35:04;;;;;;;14.45;6.20;;;;;;;;;;5123864;27;20047;-86
2021/12/10 10:37:31;;;;;;;15.43;7.35;;;;;;;;;;5140891;27;20038;-85
2021/12/10 10:39:58;;;;;;;9.00;6.30;;;;;;;;;;5140467;27;20068;-85
2021/12/10 10:42:26;;;;;;;13.48;6.88;;;;;;;;;;5158614;27;20487;-85
2021/12/10 10:44:53;;;;;;;9.30;5.82;;;;;;;;;;5123572;27;20411;-86
2021/12/10 10:47:22;;;;;;;7.80;5.72;;;;;;;;;;5158968;27;20452;-86
2021/12/10 10:49:54;;;;;;;12.75;6.03;;;;;;;;;;5140093;27;20102;-86
2021/12/10 10:53:00;;;;;;;8.15;5.53;;;;;;;;;;5123870;27;20093;-87
2021/12/10 10:55:48;;;;;;;12.88;5.90;;;;;;;;;;5015142;28;20132;-87
2021/12/10 11:02:12;;;;;;;13.05;5.95;;;;;;;;;;4997947;28;20061;-86
2021/12/10 11:04:43;;;;;;;7.20;5.03;;;;;;;;;;4997963;28;20058;-86
2021/12/10 11:07:15;;;;;;;8.68;5.07;;;;;;;;;;5015077;28;20107;-87
2021/12/10 11:09:55;;;;;;;6.68;4.88;;;;;;;;;;5016260;28;20399;-86
2021/12/10 11:12:28;;;;;;;15.32;5.78;;;;;;;;;;4999024;28;20050;-86
2021/12/10 11:14:56;;;;;;;10.00;5.28;;;;;;;;;;4998193;28;20542;-86
2021/12/10 11:17:27;;;;;;;9.60;6.00;;;;;;;;;;5014326;28;20092;-87
2021/12/10 11:19:58;;;;;;;9.63;5.22;;;;;;;;;;4998572;28;20081;-86
2021/12/10 11:22:24;;;;;;;13.43;5.18;;;;;;;;;;5006501;28;20046;-86
2021/12/10 11:24:55;;;;;;;17.02;9.05;;;;;;;;;;5097300;28;20043;-86
2021/12/10 11:27:23;;;;;;;8.35;5.32;;;;;;;;;;5151624;27;20051;-87
2021/12/10 11:29:53;;;;;;;10.10;4.85;;;;;;;;;;5121047;27;20043;-86
2021/12/10 11:32:27;;;;;;;9.25;5.20;;;;;;;;;;5139016;27;20067;-86
2021/12/10 11:35:02;;;;;;;9.65;4.60;;;;;;;;;;5157640;27;20049;-86
2021/12/10 11:37:57;;;;;;;8.60;4.43;;;;;;;;;;5122110;27;20095;-86
2021/12/10 11:40:24;;;;;;;8.43;5.35;;;;;;;;;;5054151;28;20137;-85
2021/12/10 11:42:56;;;;;;;6.88;5.40;;;;;;;;;;5020101;28;20044;-87
2021/12/10 11:45:31;;;;;;;8.07;4.90;;;;;;;;;;5021048;28;20108;-85
2021/12/10 11:48:07;;;;;;;6.97;4.63;;;;;;;;;;5037200;28;20049;-84
2021/12/10 11:50:34;;;;;;;7.78;5.07;;;;;;;;;;5037062;28;20497;-85
2021/12/10 11:53:10;;;;;;;5.68;3.80;;;;;;;;;;5036941;28;20048;-85
2021/12/10 11:55:37;;;;;;;6.95;4.05;;;;;;;;;;5052553;28;20049;-86
2021/12/10 11:58:04;;;;;;;5.47;4.07;;;;;;;;;;5019729;28;20127;-86
2021/12/10 12:00:32;;;;;;;4.25;3.50;;;;;;;;;;5019971;28;20037;-85
2021/12/10 12:03:00;;;;;;;9.98;4.00;;;;;;;;;;5019695;28;20052;-86
2021/12/10 12:05:31;;;;;;;6.60;4.93;;;;;;;;;;5020008;28;20051;-86
2021/12/10 12:08:02;;;;;;;4.47;3.47;;;;;;;;;;5019612;28;20040;-86
2021/12/10 12:10:38;;;;;;;6.93;4.53;;;;;;;;;;5020087;28;20148;-85
2021/12/10 12:15:40;;;;;;;4.95;3.92;;;;;;;;;;5040969;27;20049;-86
2021/12/10 12:18:10;;;;;;;8.40;4.40;;;;;;;;;;5138239;27;20138;-86
2021/12/10 12:20:49;;;;;;;6.53;4.00;;;;;;;;;;5120799;27;20039;-85
2021/12/10 12:26:14;;;;;;;8.13;3.97;;;4.80;99.90;;;;;;5137568;27;20130;-86
2021/12/10 12:29:00;;;;;;;7.80;4.55;;;;;;;;;;5120786;27;20038;-86
2021/12/10 12:31:34;;;;;;;5.15;4.20;;;;;;;;;;5035475;28;20143;-86
2021/12/10 12:34:02;;;;;;;7.53;3.80;;;;;;;;;;5036019;28;20053;-86
2021/12/10 12:36:28;;;;;;;6.63;4.40;;;;;;;;;;5035966;28;20068;-85
2021/12/10 12:38:54;;;;;;;5.47;4.18;;;;;;;;;;5035424;28;20288;-84
2021/12/10 12:41:30;;;;;;;6.82;4.15;;;;;;;;;;5018572;28;20048;-86
2021/12/10 12:44:08;;;;;;;6.32;3.90;;;;;;;;;;5035136;28;20052;-85
2021/12/10 12:46:35;;;;;;;7.50;4.20;;;;;;;;;;5035091;28;20045;-85
2021/12/10 12:49:02;;;;;;;4.28;3.58;;;;;;;;;;5035518;28;20057;-85
2021/12/10 12:51:28;;;;;;;5.45;4.00;;;;;;;;;;5019472;28;20146;-86
2021/12/10 12:53:56;;;;;;;4.60;3.88;;;;;;;;;;5052328;28;20057;-85
2021/12/10 12:56:23;;;;;;;9.95;3.72;;;;;;;;;;5019466;28;20052;-84
2021/12/10 12:58:57;;;;;;;6.35;4.57;;;4.90;99.90;;;;;;5035989;28;20043;-86
2021/12/10 13:01:34;;;;;;;6.30;3.78;;;;;;;;;;5019263;28;20068;-85
2021/12/10 13:04:10;;;;;;;6.53;4.22;;;;;;;;;;5035571;28;20105;-85
2021/12/10 13:06:36;;;;;;;14.50;5.20;;;;;;;;;;5018800;28;20095;-86
2021/12/10 13:09:06;;;;;;;8.10;3.72;;;;;;;;;;5108914;27;20133;-85
2021/12/10 13:12:02;;;;;;;12.35;3.75;;;;;;;;;;5119729;27;20043;-84
2021/12/10 13:14:34;;;;;;;5.68;3.80;;;;;;;;;;5120778;27;20555;-85
2021/12/10 13:17:11;;;;;;;8.80;3.85;;;;;;;;;;5137350;27;20126;-84
2021/12/10 13:19:37;;;;;;;4.65;4.05;;;;;;;;;;5137072;27;20095;-86
2021/12/10 13:22:24;;;;;;;7.32;3.78;;;;;;;;;;5136902;27;20051;-85
2021/12/10 13:24:52;;;;;;;8.07;4.47;;;;;;;;;;5136098;27;20038;-86
2021/12/10 13:27:19;;;;;;;10.98;4.10;;;;;;;;;;5137113;27;20411;-85
2021/12/10 13:29:46;;;;;;;6.82;4.35;;;;;;;;;;5120044;27;20487;-84
2021/12/10 13:32:12;;;;;;;6.40;3.95;;;;;;;;;;5119823;27;20065;-84
2021/12/10 13:34:38;;;;;;;7.30;4.78;;;;;;;;;;5119867;27;20078;-84
2021/12/10 13:37:06;;;;;;;5.75;3.70;;;;;;;;;;5119788;27;20054;-85
2021/12/10 13:39:33;;;;;;;15.30;4.60;;;;;;;;;;5120346;27;20102;-86
2021/12/10 13:41:59;;;;;;;5.15;3.88;;;;;;;;;;5136966;27;20503;-85
2021/12/10 13:46:57;;;;;;;10.80;4.10;;;;;;;;;;5137056;27;20471;-87
2021/12/10 13:49:23;;;;;;;8.15;4.55;;;;;;;;;;5120155;27;20043;-87
2021/12/10 13:51:51;;;;;;;6.93;4.55;;;;;;;;;;5120107;27;20039;-87
2021/12/10 13:54:23;;;;;;;7.15;4.53;;;;;;;;;;5122157;27;20086;-86
2021/12/10 13:56:55;;;;;;;5.57;3.97;;;;;;;;;;5141542;27;20046;-87
2021/12/10 13:59:24;;;;;;;6.25;4.00;;;;;;;;;;5141271;27;20089;-87
2021/12/10 14:01:51;;;;;;;8.23;4.63;;;;;;;;;;5123901;27;20376;-87
2021/12/10 14:04:20;;;;;;;7.93;4.18;;;;;;;;;;5124147;27;20129;-86
2021/12/10 14:06:49;;;;;;;7.57;4.43;;;;;;;;;;5124137;27;20038;-86
2021/12/10 14:09:26;;;;;;;5.80;4.30;;;;;;;;;;5123685;27;20506;-85
2021/12/10 14:12:05;;;;;;;6.47;4.32;;;;;;;;;;5141114;27;20053;-86
2021/12/10 14:14:34;;;;;;;8.15;3.58;;;4.30;99.90;;;;;;5124037;27;20074;-86
2021/12/10 14:17:07;;;;;;;5.22;4.20;;;4.10;99.90;;;;;;5123138;27;20058;-86
2021/12/10 14:19:41;;;;;;;7.47;4.38;;;;;;;;;;5140450;27;20066;-85
2021/12/10 14:22:08;;;;;;;5.53;4.05;;;;;;;;;;5122921;27;20526;-85
2021/12/10 14:24:40;;;;;;;9.02;5.68;;;;;;;;;;5123400;27;20045;-87
2021/12/10 14:27:19;;;;;;;5.57;4.68;;;;;;;;;;5140553;27;20155;-84
2021/12/10 14:30:05;;;;;;;8.13;4.40;;;;;;;;;;5123530;27;20035;-84
2021/12/10 14:32:32;;;;;;;7.53;4.68;;;;;;;;;;5122883;27;20050;-85
2021/12/10 14:35:06;;;;;;;8.88;6.25;;;;;;;;;;5122695;27;20380;-86
2021/12/10 14:37:53;;;;;;;10.25;7.00;;;;;;;;;;5123158;27;20061;-86
2021/12/10 14:40:20;;;;;;;8.75;5.95;;;;;;;;;;5108937;27;20057;-86
2021/12/10 14:43:15;;;;;;;8.65;6.00;;;4.00;99.90;;;;;;5140245;27;20042;-86
2021/12/10 14:46:00;;;;;;;10.02;4.90;;;;;;;;;;5122443;27;20074;-85
2021/12/10 14:48:26;;;;;;;10.75;6.22;;;;;;;;;;5139249;27;20108;-86
2021/12/10 14:51:04;;;;;;;9.18;6.20;;;;;;;;;;5122331;27;20056;-86